sensor_id;sensor_type;location;lat;lon;timestamp;pressure;altitude;pressure_sealevel;temperature;humidity
57594;BME280;43423;46.510;6.686;2023-02-16T00:01:52;97582.22;;;5.37;64.29
57594;BME280;43423;46.510;6.686;2023-02-16T00:04:22;97576.69;;;5.41;63.64
57594;BME280;43423;46.510;6.686;2023-02-16T00:06:49;97577.81;;;5.43;63.84
57594;BME280;43423;46.510;6.686;2023-02-16T00:09:15;97576.69;;;5.41;62.79
57594;BME280;43423;46.510;6.686;2023-02-16T00:11:41;97589.50;;;4.97;65.13
57594;BME280;43423;46.510;6.686;2023-02-16T00:14:26;97582.41;;;5.03;64.62
57594;BME280;43423;46.510;6.686;2023-02-16T00:16:56;97586.22;;;4.55;65.51
57594;BME280;43423;46.510;6.686;2023-02-16T00:19:32;97593.41;;;4.42;66.32
57594;BME280;43423;46.510;6.686;2023-02-16T00:21:59;97585.41;;;4.58;65.76
57594;BME280;43423;46.510;6.686;2023-02-16T00:24:27;97593.75;;;4.74;65.41
57594;BME280;43423;46.510;6.686;2023-02-16T00:26:53;97599.47;;;4.80;64.93
57594;BME280;43423;46.510;6.686;2023-02-16T00:29:23;97590.78;;;4.89;64.29
57594;BME280;43423;46.510;6.686;2023-02-16T00:31:50;97600.81;;;4.95;64.12
57594;BME280;43423;46.510;6.686;2023-02-16T00:34:31;97591.53;;;4.93;63.65
57594;BME280;43423;46.510;6.686;2023-02-16T00:36:57;97595.66;;;5.01;63.62
57594;BME280;43423;46.510;6.686;2023-02-16T00:39:23;97594.44;;;5.06;63.31
57594;BME280;43423;46.510;6.686;2023-02-16T00:41:51;97584.25;;;5.10;63.30
57594;BME280;43423;46.510;6.686;2023-02-16T00:44:42;97581.16;;;5.08;63.39
57594;BME280;43423;46.510;6.686;2023-02-16T00:49:40;97573.34;;;5.10;63.00
57594;BME280;43423;46.510;6.686;2023-02-16T00:55:01;97571.06;;;5.04;63.05
57594;BME280;43423;46.510;6.686;2023-02-16T00:57:31;97581.28;;;4.73;64.58
57594;BME280;43423;46.510;6.686;2023-02-16T01:00:26;97576.88;;;4.83;64.51
57594;BME280;43423;46.510;6.686;2023-02-16T01:02:58;97578.31;;;4.64;64.90
57594;BME280;43423;46.510;6.686;2023-02-16T01:05:24;97582.38;;;4.53;65.36
57594;BME280;43423;46.510;6.686;2023-02-16T01:07:50;97566.16;;;4.42;65.54
57594;BME280;43423;46.510;6.686;2023-02-16T01:10:35;97576.09;;;4.56;65.35
57594;BME280;43423;46.510;6.686;2023-02-16T01:13:20;97590.25;;;4.74;64.20
57594;BME280;43423;46.510;6.686;2023-02-16T01:15:46;97579.53;;;4.87;63.69
57594;BME280;43423;46.510;6.686;2023-02-16T01:18:13;97584.81;;;4.97;62.88
57594;BME280;43423;46.510;6.686;2023-02-16T01:20:39;97575.50;;;4.95;63.04
57594;BME280;43423;46.510;6.686;2023-02-16T01:23:05;97566.16;;;4.96;62.25
57594;BME280;43423;46.510;6.686;2023-02-16T01:25:30;97567.22;;;5.02;62.68
57594;BME280;43423;46.510;6.686;2023-02-16T01:27:56;97569.72;;;4.93;62.60
57594;BME280;43423;46.510;6.686;2023-02-16T01:30:24;97572.47;;;4.89;63.06
57594;BME280;43423;46.510;6.686;2023-02-16T01:32:50;97561.47;;;4.96;62.52
57594;BME280;43423;46.510;6.686;2023-02-16T01:35:28;97573.97;;;4.94;61.73
57594;BME280;43423;46.510;6.686;2023-02-16T01:37:55;97577.78;;;5.00;61.51
57594;BME280;43423;46.510;6.686;2023-02-16T01:40:27;97580.44;;;5.03;62.42
57594;BME280;43423;46.510;6.686;2023-02-16T01:43:22;97579.81;;;4.11;65.83
57594;BME280;43423;46.510;6.686;2023-02-16T01:45:54;97580.00;;;3.59;68.29
57594;BME280;43423;46.510;6.686;2023-02-16T01:48:29;97582.09;;;3.48;70.23
57594;BME280;43423;46.510;6.686;2023-02-16T01:53:48;97580.84;;;4.21;70.31
57594;BME280;43423;46.510;6.686;2023-02-16T01:58:54;97569.94;;;4.52;68.44
57594;BME280;43423;46.510;6.686;2023-02-16T02:01:42;97573.28;;;4.63;67.32
57594;BME280;43423;46.510;6.686;2023-02-16T02:04:22;97574.91;;;4.57;66.68
57594;BME280;43423;46.510;6.686;2023-02-16T02:07:13;97560.44;;;4.63;66.00
57594;BME280;43423;46.510;6.686;2023-02-16T02:09:51;97562.06;;;4.57;65.31
57594;BME280;43423;46.510;6.686;2023-02-16T02:15:23;97556.72;;;4.50;64.59
57594;BME280;43423;46.510;6.686;2023-02-16T02:17:49;97557.09;;;4.52;63.40
57594;BME280;43423;46.510;6.686;2023-02-16T02:29:11;97553.44;;;4.62;63.64
57594;BME280;43423;46.510;6.686;2023-02-16T02:34:32;97547.63;;;4.60;63.56
57594;BME280;43423;46.510;6.686;2023-02-16T02:37:13;97539.47;;;4.60;62.60
57594;BME280;43423;46.510;6.686;2023-02-16T02:39:57;97546.38;;;4.65;62.66
57594;BME280;43423;46.510;6.686;2023-02-16T02:45:24;97555.41;;;3.70;67.30
57594;BME280;43423;46.510;6.686;2023-02-16T02:47:51;97548.69;;;3.44;69.45
57594;BME280;43423;46.510;6.686;2023-02-16T02:50:40;97544.50;;;3.74;68.06
57594;BME280;43423;46.510;6.686;2023-02-16T02:53:28;97536.44;;;3.97;66.71
57594;BME280;43423;46.510;6.686;2023-02-16T02:55:54;97541.34;;;4.09;66.36
57594;BME280;43423;46.510;6.686;2023-02-16T02:58:42;97535.78;;;4.16;65.26
57594;BME280;43423;46.510;6.686;2023-02-16T03:01:27;97537.13;;;4.05;67.08
57594;BME280;43423;46.510;6.686;2023-02-16T03:03:55;97537.75;;;3.85;67.77
57594;BME280;43423;46.510;6.686;2023-02-16T03:06:25;97542.59;;;4.01;66.99
57594;BME280;43423;46.510;6.686;2023-02-16T03:09:05;97529.38;;;4.03;66.16
57594;BME280;43423;46.510;6.686;2023-02-16T03:11:31;97532.38;;;4.12;65.19
57594;BME280;43423;46.510;6.686;2023-02-16T03:14:20;97524.56;;;4.14;64.16
57594;BME280;43423;46.510;6.686;2023-02-16T03:16:52;97531.13;;;4.17;64.68
57594;BME280;43423;46.510;6.686;2023-02-16T03:19:40;97529.25;;;4.10;65.84
57594;BME280;43423;46.510;6.686;2023-02-16T03:22:25;97522.28;;;4.09;66.40
57594;BME280;43423;46.510;6.686;2023-02-16T03:25:10;97532.41;;;4.09;66.98
57594;BME280;43423;46.510;6.686;2023-02-16T03:27:55;97525.56;;;3.97;67.82
57594;BME280;43423;46.510;6.686;2023-02-16T03:30:43;97529.09;;;3.94;67.71
57594;BME280;43423;46.510;6.686;2023-02-16T03:33:09;97543.94;;;3.89;68.07
57594;BME280;43423;46.510;6.686;2023-02-16T03:35:35;97534.31;;;3.81;69.00
57594;BME280;43423;46.510;6.686;2023-02-16T03:38:01;97529.66;;;3.78;68.20
57594;BME280;43423;46.510;6.686;2023-02-16T03:40:27;97538.50;;;3.89;68.38
57594;BME280;43423;46.510;6.686;2023-02-16T03:43:03;97531.38;;;3.99;67.54
57594;BME280;43423;46.510;6.686;2023-02-16T03:45:30;97538.00;;;3.95;68.16
57594;BME280;43423;46.510;6.686;2023-02-16T03:47:56;97538.81;;;3.95;68.39
57594;BME280;43423;46.510;6.686;2023-02-16T03:50:22;97545.06;;;3.92;69.59
57594;BME280;43423;46.510;6.686;2023-02-16T03:52:47;97542.69;;;3.94;68.11
57594;BME280;43423;46.510;6.686;2023-02-16T03:55:14;97541.91;;;3.93;67.89
57594;BME280;43423;46.510;6.686;2023-02-16T03:57:39;97540.28;;;4.00;68.29
57594;BME280;43423;46.510;6.686;2023-02-16T04:00:05;97542.69;;;3.94;67.73
57594;BME280;43423;46.510;6.686;2023-02-16T04:02:31;97550.06;;;3.97;69.03
57594;BME280;43423;46.510;6.686;2023-02-16T04:04:56;97545.09;;;3.88;68.40
57594;BME280;43423;46.510;6.686;2023-02-16T04:07:22;97547.41;;;3.90;67.61
57594;BME280;43423;46.510;6.686;2023-02-16T04:09:48;97554.75;;;3.93;67.29
57594;BME280;43423;46.510;6.686;2023-02-16T04:12:14;97550.06;;;3.97;67.48
57594;BME280;43423;46.510;6.686;2023-02-16T04:14:58;97555.53;;;3.59;69.02
57594;BME280;43423;46.510;6.686;2023-02-16T04:17:23;97560.84;;;3.70;68.91
57594;BME280;43423;46.510;6.686;2023-02-16T04:19:49;97564.66;;;3.76;68.31
57594;BME280;43423;46.510;6.686;2023-02-16T04:22:15;97564.09;;;3.92;67.66
57594;BME280;43423;46.510;6.686;2023-02-16T04:24:40;97570.72;;;3.91;66.67
57594;BME280;43423;46.510;6.686;2023-02-16T04:27:06;97566.09;;;3.88;67.23
57594;BME280;43423;46.510;6.686;2023-02-16T04:29:32;97566.50;;;3.86;66.00
57594;BME280;43423;46.510;6.686;2023-02-16T04:31:57;97562.28;;;3.82;66.72
57594;BME280;43423;46.510;6.686;2023-02-16T04:34:23;97568.28;;;3.66;67.62
57594;BME280;43423;46.510;6.686;2023-02-16T04:36:48;97566.78;;;3.61;67.93
57594;BME280;43423;46.510;6.686;2023-02-16T04:39:14;97568.66;;;3.68;67.56
57594;BME280;43423;46.510;6.686;2023-02-16T04:41:39;97573.31;;;3.68;66.99
57594;BME280;43423;46.510;6.686;2023-02-16T04:44:05;97576.38;;;3.73;65.95
57594;BME280;43423;46.510;6.686;2023-02-16T04:46:30;97571.78;;;3.67;64.76
57594;BME280;43423;46.510;6.686;2023-02-16T04:48:56;97575.34;;;3.60;65.71
57594;BME280;43423;46.510;6.686;2023-02-16T04:51:22;97579.59;;;3.64;65.67
57594;BME280;43423;46.510;6.686;2023-02-16T04:53:48;97571.03;;;3.62;65.37
57594;BME280;43423;46.510;6.686;2023-02-16T04:56:13;97578.75;;;3.68;64.54
57594;BME280;43423;46.510;6.686;2023-02-16T04:58:39;97577.28;;;3.59;65.48
57594;BME280;43423;46.510;6.686;2023-02-16T05:01:05;97582.31;;;3.64;66.27
57594;BME280;43423;46.510;6.686;2023-02-16T05:03:30;97581.06;;;3.69;65.78
57594;BME280;43423;46.510;6.686;2023-02-16T05:05:56;97574.13;;;3.64;66.53
57594;BME280;43423;46.510;6.686;2023-02-16T05:08:22;97582.66;;;3.67;66.66
57594;BME280;43423;46.510;6.686;2023-02-16T05:10:47;97576.94;;;3.57;67.11
57594;BME280;43423;46.510;6.686;2023-02-16T05:13:36;97576.66;;;3.48;67.57
57594;BME280;43423;46.510;6.686;2023-02-16T05:16:21;97577.25;;;3.63;66.69
57594;BME280;43423;46.510;6.686;2023-02-16T05:18:47;97576.00;;;3.71;66.03
57594;BME280;43423;46.510;6.686;2023-02-16T05:21:12;97570.88;;;3.77;65.26
57594;BME280;43423;46.510;6.686;2023-02-16T05:24:07;97566.53;;;3.83;64.89
57594;BME280;43423;46.510;6.686;2023-02-16T05:26:34;97570.84;;;3.80;64.61
57594;BME280;43423;46.510;6.686;2023-02-16T05:29:01;97575.91;;;3.78;64.96
57594;BME280;43423;46.510;6.686;2023-02-16T05:31:28;97567.81;;;3.75;64.98
57594;BME280;43423;46.510;6.686;2023-02-16T05:33:54;97579.03;;;3.77;65.69
57594;BME280;43423;46.510;6.686;2023-02-16T05:36:20;97575.13;;;3.78;65.60
57594;BME280;43423;46.510;6.686;2023-02-16T05:38:46;97568.84;;;3.50;67.41
57594;BME280;43423;46.510;6.686;2023-02-16T05:41:12;97577.63;;;3.24;68.78
57594;BME280;43423;46.510;6.686;2023-02-16T05:43:52;97576.66;;;3.45;68.19
57594;BME280;43423;46.510;6.686;2023-02-16T05:46:19;97571.22;;;3.48;67.08
57594;BME280;43423;46.510;6.686;2023-02-16T05:48:45;97583.63;;;3.49;67.65
57594;BME280;43423;46.510;6.686;2023-02-16T05:51:11;97589.06;;;3.49;67.42
57594;BME280;43423;46.510;6.686;2023-02-16T05:53:36;97597.56;;;3.51;67.68
57594;BME280;43423;46.510;6.686;2023-02-16T05:56:02;97589.56;;;3.37;68.24
57594;BME280;43423;46.510;6.686;2023-02-16T05:58:28;97595.44;;;3.32;69.61
57594;BME280;43423;46.510;6.686;2023-02-16T06:00:53;97607.03;;;3.36;68.31
57594;BME280;43423;46.510;6.686;2023-02-16T06:03:19;97604.03;;;3.27;70.98
57594;BME280;43423;46.510;6.686;2023-02-16T06:05:44;97597.47;;;3.21;71.84
57594;BME280;43423;46.510;6.686;2023-02-16T06:08:10;97605.56;;;3.28;70.43
57594;BME280;43423;46.510;6.686;2023-02-16T06:10:35;97606.75;;;3.27;70.26
57594;BME280;43423;46.510;6.686;2023-02-16T06:13:01;97602.06;;;3.27;69.79
57594;BME280;43423;46.510;6.686;2023-02-16T06:15:27;97600.91;;;3.28;70.63
57594;BME280;43423;46.510;6.686;2023-02-16T06:17:53;97592.38;;;3.26;71.10
57594;BME280;43423;46.510;6.686;2023-02-16T06:20:18;97596.22;;;3.29;71.02
57594;BME280;43423;46.510;6.686;2023-02-16T06:22:45;97595.81;;;3.34;69.74
57594;BME280;43423;46.510;6.686;2023-02-16T06:25:10;97597.75;;;3.33;69.92
57594;BME280;43423;46.510;6.686;2023-02-16T06:27:36;97612.81;;;3.42;70.36
57594;BME280;43423;46.510;6.686;2023-02-16T06:30:02;97606.97;;;3.43;70.81
57594;BME280;43423;46.510;6.686;2023-02-16T06:32:28;97601.13;;;3.45;72.12
57594;BME280;43423;46.510;6.686;2023-02-16T06:34:53;97608.88;;;3.46;72.58
57594;BME280;43423;46.510;6.686;2023-02-16T06:37:19;97612.47;;;3.36;70.23
57594;BME280;43423;46.510;6.686;2023-02-16T06:39:46;97613.28;;;3.33;70.31
57594;BME280;43423;46.510;6.686;2023-02-16T06:42:12;97633.47;;;3.35;69.67
57594;BME280;43423;46.510;6.686;2023-02-16T06:44:37;97618.66;;;3.40;69.91
57594;BME280;43423;46.510;6.686;2023-02-16T06:47:08;97611.72;;;3.35;67.72
57594;BME280;43423;46.510;6.686;2023-02-16T06:49:34;97612.41;;;3.43;67.44
57594;BME280;43423;46.510;6.686;2023-02-16T06:51:59;97617.09;;;3.43;67.61
57594;BME280;43423;46.510;6.686;2023-02-16T06:54:25;97617.44;;;3.45;68.52
57594;BME280;43423;46.510;6.686;2023-02-16T06:56:50;97620.91;;;3.49;69.18
57594;BME280;43423;46.510;6.686;2023-02-16T06:59:16;97623.94;;;3.54;69.38
57594;BME280;43423;46.510;6.686;2023-02-16T07:01:41;97622.81;;;3.52;68.96
57594;BME280;43423;46.510;6.686;2023-02-16T07:04:07;97620.47;;;3.54;69.83
57594;BME280;43423;46.510;6.686;2023-02-16T07:06:33;97623.59;;;3.52;69.56
57594;BME280;43423;46.510;6.686;2023-02-16T07:08:58;97623.19;;;3.54;70.46
57594;BME280;43423;46.510;6.686;2023-02-16T07:11:24;97625.44;;;3.62;70.81
57594;BME280;43423;46.510;6.686;2023-02-16T07:13:50;97633.16;;;3.68;70.99
57594;BME280;43423;46.510;6.686;2023-02-16T07:16:15;97639.72;;;3.74;71.65
57594;BME280;43423;46.510;6.686;2023-02-16T07:18:41;97627.59;;;3.78;72.39
57594;BME280;43423;46.510;6.686;2023-02-16T07:21:07;97641.41;;;3.95;72.18
57594;BME280;43423;46.510;6.686;2023-02-16T07:23:32;97645.94;;;4.08;71.31
57594;BME280;43423;46.510;6.686;2023-02-16T07:25:58;97653.59;;;4.20;71.35
57594;BME280;43423;46.510;6.686;2023-02-16T07:28:24;97649.91;;;4.34;71.11
57594;BME280;43423;46.510;6.686;2023-02-16T07:30:50;97653.97;;;4.53;71.20
57594;BME280;43423;46.510;6.686;2023-02-16T07:33:16;97648.06;;;4.58;72.42
57594;BME280;43423;46.510;6.686;2023-02-16T07:35:42;97651.16;;;4.60;72.49
57594;BME280;43423;46.510;6.686;2023-02-16T07:38:08;97645.88;;;4.76;71.37
57594;BME280;43423;46.510;6.686;2023-02-16T07:40:34;97646.84;;;4.90;70.12
57594;BME280;43423;46.510;6.686;2023-02-16T07:43:01;97653.69;;;5.01;70.09
57594;BME280;43423;46.510;6.686;2023-02-16T07:45:27;97653.72;;;5.25;69.11
57594;BME280;43423;46.510;6.686;2023-02-16T07:47:52;97647.97;;;5.43;68.83
57594;BME280;43423;46.510;6.686;2023-02-16T07:50:18;97656.69;;;5.57;68.19
57594;BME280;43423;46.510;6.686;2023-02-16T07:52:43;97660.72;;;5.73;68.39
57594;BME280;43423;46.510;6.686;2023-02-16T07:55:10;97646.53;;;5.81;68.06
57594;BME280;43423;46.510;6.686;2023-02-16T07:57:37;97658.97;;;5.82;67.98
57594;BME280;43423;46.510;6.686;2023-02-16T08:00:04;97663.53;;;5.93;67.66
57594;BME280;43423;46.510;6.686;2023-02-16T08:02:32;97657.09;;;6.23;67.07
57594;BME280;43423;46.510;6.686;2023-02-16T08:04:58;97659.25;;;6.31;66.82
57594;BME280;43423;46.510;6.686;2023-02-16T08:07:24;97657.91;;;6.39;66.22
57594;BME280;43423;46.510;6.686;2023-02-16T08:09:50;97662.28;;;6.57;66.31
57594;BME280;43423;46.510;6.686;2023-02-16T08:12:15;97659.03;;;6.62;65.76
57594;BME280;43423;46.510;6.686;2023-02-16T08:14:42;97665.06;;;6.73;65.97
57594;BME280;43423;46.510;6.686;2023-02-16T08:17:07;97663.63;;;7.01;66.02
57594;BME280;43423;46.510;6.686;2023-02-16T08:19:34;97663.56;;;7.05;66.59
57594;BME280;43423;46.510;6.686;2023-02-16T08:22:01;97662.38;;;7.06;66.62
57594;BME280;43423;46.510;6.686;2023-02-16T08:24:27;97662.72;;;7.24;67.39
57594;BME280;43423;46.510;6.686;2023-02-16T08:26:53;97663.44;;;7.44;66.09
57594;BME280;43423;46.510;6.686;2023-02-16T08:29:21;97649.22;;;7.17;66.31
57594;BME280;43423;46.510;6.686;2023-02-16T08:31:47;97661.69;;;7.18;67.34
57594;BME280;43423;46.510;6.686;2023-02-16T08:34:14;97667.78;;;7.42;66.38
57594;BME280;43423;46.510;6.686;2023-02-16T08:36:42;97670.94;;;7.56;65.12
57594;BME280;43423;46.510;6.686;2023-02-16T08:39:14;97668.84;;;7.93;64.20
57594;BME280;43423;46.510;6.686;2023-02-16T08:41:40;97669.13;;;8.11;64.03
57594;BME280;43423;46.510;6.686;2023-02-16T08:44:08;97668.50;;;8.20;63.19
57594;BME280;43423;46.510;6.686;2023-02-16T08:46:34;97675.97;;;8.49;62.51
57594;BME280;43423;46.510;6.686;2023-02-16T08:49:00;97676.59;;;8.11;62.58
57594;BME280;43423;46.510;6.686;2023-02-16T08:51:28;97685.88;;;8.01;62.58
57594;BME280;43423;46.510;6.686;2023-02-16T08:53:57;97676.16;;;7.67;64.15
57594;BME280;43423;46.510;6.686;2023-02-16T08:56:22;97681.84;;;7.89;64.16
57594;BME280;43423;46.510;6.686;2023-02-16T08:58:48;97685.53;;;8.28;63.41
57594;BME280;43423;46.510;6.686;2023-02-16T09:01:14;97692.47;;;7.87;64.23
57594;BME280;43423;46.510;6.686;2023-02-16T09:03:41;97690.44;;;8.20;64.04
57594;BME280;43423;46.510;6.686;2023-02-16T09:06:08;97688.16;;;8.48;64.18
57594;BME280;43423;46.510;6.686;2023-02-16T09:08:35;97695.50;;;8.05;63.74
57594;BME280;43423;46.510;6.686;2023-02-16T09:11:05;97705.50;;;8.12;63.37
57594;BME280;43423;46.510;6.686;2023-02-16T09:13:35;97697.34;;;8.25;63.27
57594;BME280;43423;46.510;6.686;2023-02-16T09:16:04;97694.94;;;8.27;63.42
57594;BME280;43423;46.510;6.686;2023-02-16T09:18:30;97694.41;;;8.48;63.99
57594;BME280;43423;46.510;6.686;2023-02-16T09:20:57;97686.06;;;8.23;63.60
57594;BME280;43423;46.510;6.686;2023-02-16T09:23:27;97694.66;;;8.66;63.23
57594;BME280;43423;46.510;6.686;2023-02-16T09:25:52;97690.50;;;8.75;62.50
57594;BME280;43423;46.510;6.686;2023-02-16T09:28:18;97692.66;;;9.21;63.26
57594;BME280;43423;46.510;6.686;2023-02-16T09:30:45;97699.13;;;9.02;62.17
57594;BME280;43423;46.510;6.686;2023-02-16T09:33:10;97695.50;;;9.18;62.23
57594;BME280;43423;46.510;6.686;2023-02-16T09:35:39;97693.38;;;8.84;63.16
57594;BME280;43423;46.510;6.686;2023-02-16T09:38:04;97695.00;;;8.68;63.57
57594;BME280;43423;46.510;6.686;2023-02-16T09:40:32;97698.00;;;9.00;63.50
57594;BME280;43423;46.510;6.686;2023-02-16T09:43:28;97700.03;;;9.25;63.15
57594;BME280;43423;46.510;6.686;2023-02-16T09:46:00;97710.63;;;8.97;63.70
57594;BME280;43423;46.510;6.686;2023-02-16T09:48:34;97703.16;;;8.98;63.79
57594;BME280;43423;46.510;6.686;2023-02-16T09:51:00;97708.41;;;8.79;63.30
57594;BME280;43423;46.510;6.686;2023-02-16T09:53:40;97697.69;;;8.98;63.20
57594;BME280;43423;46.510;6.686;2023-02-16T09:56:28;97703.72;;;9.31;62.63
57594;BME280;43423;46.510;6.686;2023-02-16T09:59:00;97709.88;;;9.60;61.81
57594;BME280;43423;46.510;6.686;2023-02-16T10:07:21;97715.56;;;9.53;61.14
57594;BME280;43423;46.510;6.686;2023-02-16T10:09:52;97709.88;;;9.60;60.90
57594;BME280;43423;46.510;6.686;2023-02-16T10:12:23;97706.56;;;9.40;62.01
57594;BME280;43423;46.510;6.686;2023-02-16T10:14:54;97698.13;;;9.60;61.84
57594;BME280;43423;46.510;6.686;2023-02-16T10:17:39;97708.44;;;9.68;61.82
57594;BME280;43423;46.510;6.686;2023-02-16T10:20:22;97707.22;;;9.69;61.10
57594;BME280;43423;46.510;6.686;2023-02-16T10:25:25;97707.09;;;9.73;61.42
57594;BME280;43423;46.510;6.686;2023-02-16T10:31:12;97713.69;;;9.75;61.14
57594;BME280;43423;46.510;6.686;2023-02-16T10:33:43;97722.22;;;9.90;61.06
57594;BME280;43423;46.510;6.686;2023-02-16T10:39:06;97714.47;;;9.76;62.19
57594;BME280;43423;46.510;6.686;2023-02-16T10:41:36;97724.13;;;9.81;61.06
57594;BME280;43423;46.510;6.686;2023-02-16T10:44:19;97717.91;;;10.02;59.96
57594;BME280;43423;46.510;6.686;2023-02-16T10:46:53;97710.56;;;10.33;58.64
57594;BME280;43423;46.510;6.686;2023-02-16T10:49:20;97709.44;;;10.44;58.70
57594;BME280;43423;46.510;6.686;2023-02-16T10:51:48;97715.31;;;10.55;57.72
57594;BME280;43423;46.510;6.686;2023-02-16T10:54:21;97701.63;;;10.64;57.43
57594;BME280;43423;46.510;6.686;2023-02-16T10:59:36;97704.69;;;10.22;58.41
57594;BME280;43423;46.510;6.686;2023-02-16T11:02:16;97698.34;;;10.34;59.27
57594;BME280;43423;46.510;6.686;2023-02-16T11:04:44;97691.41;;;10.43;58.72
57594;BME280;43423;46.510;6.686;2023-02-16T11:07:13;97701.44;;;10.80;58.29
57594;BME280;43423;46.510;6.686;2023-02-16T11:09:42;97694.28;;;10.39;58.29
57594;BME280;43423;46.510;6.686;2023-02-16T11:15:01;97686.91;;;10.58;59.14
57594;BME280;43423;46.510;6.686;2023-02-16T11:17:29;97686.72;;;10.30;58.54
57594;BME280;43423;46.510;6.686;2023-02-16T11:20:05;97690.94;;;10.22;59.95
57594;BME280;43423;46.510;6.686;2023-02-16T11:22:38;97694.03;;;10.46;59.72
57594;BME280;43423;46.510;6.686;2023-02-16T11:27:56;97690.25;;;10.53;59.78
57594;BME280;43423;46.510;6.686;2023-02-16T11:30:42;97682.13;;;10.71;59.67
57594;BME280;43423;46.510;6.686;2023-02-16T11:33:21;97685.63;;;10.72;58.23
57594;BME280;43423;46.510;6.686;2023-02-16T11:35:47;97687.41;;;10.87;57.26
57594;BME280;43423;46.510;6.686;2023-02-16T11:40:55;97664.06;;;11.32;56.65
57594;BME280;43423;46.510;6.686;2023-02-16T11:43:25;97655.19;;;11.37;55.93
57594;BME280;43423;46.510;6.686;2023-02-16T11:46:01;97657.63;;;11.35;56.47
57594;BME280;43423;46.510;6.686;2023-02-16T11:48:30;97655.81;;;11.32;56.64
57594;BME280;43423;46.510;6.686;2023-02-16T11:51:05;97659.91;;;11.28;56.72
57594;BME280;43423;46.510;6.686;2023-02-16T11:53:34;97653.91;;;11.20;56.44
57594;BME280;43423;46.510;6.686;2023-02-16T11:59:02;97654.13;;;11.35;56.46
57594;BME280;43423;46.510;6.686;2023-02-16T12:01:45;97645.84;;;11.26;56.09
57594;BME280;43423;46.510;6.686;2023-02-16T12:29:16;97620.44;;;11.89;52.90
57594;BME280;43423;46.510;6.686;2023-02-16T12:32:06;97622.69;;;12.37;52.19
57594;BME280;43423;46.510;6.686;2023-02-16T12:34:47;97617.78;;;12.32;51.81
57594;BME280;43423;46.510;6.686;2023-02-16T12:43:11;97617.94;;;12.37;51.17
57594;BME280;43423;46.510;6.686;2023-02-16T12:45:45;97612.59;;;12.43;51.58
57594;BME280;43423;46.510;6.686;2023-02-16T12:50:56;97615.50;;;12.48;50.53
57594;BME280;43423;46.510;6.686;2023-02-16T12:53:26;97607.22;;;12.30;49.00
57594;BME280;43423;46.510;6.686;2023-02-16T12:55:58;97605.81;;;12.53;50.48
57594;BME280;43423;46.510;6.686;2023-02-16T12:58:29;97603.00;;;12.71;48.11
57594;BME280;43423;46.510;6.686;2023-02-16T13:01:07;97612.47;;;12.89;49.12
57594;BME280;43423;46.510;6.686;2023-02-16T13:03:54;97593.47;;;12.81;49.12
57594;BME280;43423;46.510;6.686;2023-02-16T13:12:01;97584.72;;;13.16;44.77
57594;BME280;43423;46.510;6.686;2023-02-16T13:14:32;97581.72;;;13.38;46.19
57594;BME280;43423;46.510;6.686;2023-02-16T13:17:15;97576.25;;;13.29;44.72
57594;BME280;43423;46.510;6.686;2023-02-16T13:19:43;97579.53;;;13.42;45.78
57594;BME280;43423;46.510;6.686;2023-02-16T13:25:08;97569.25;;;13.09;44.10
57594;BME280;43423;46.510;6.686;2023-02-16T13:35:46;97551.88;;;13.66;41.78
57594;BME280;43423;46.510;6.686;2023-02-16T13:41:43;97543.09;;;13.53;42.98
57594;BME280;43423;46.510;6.686;2023-02-16T13:44:24;97536.38;;;13.68;41.91
57594;BME280;43423;46.510;6.686;2023-02-16T13:46:53;97549.03;;;13.60;42.09
57594;BME280;43423;46.510;6.686;2023-02-16T13:49:34;97535.97;;;13.61;42.36
57594;BME280;43423;46.510;6.686;2023-02-16T13:52:03;97542.81;;;13.65;41.38
57594;BME280;43423;46.510;6.686;2023-02-16T13:54:35;97527.38;;;13.35;42.36
57594;BME280;43423;46.510;6.686;2023-02-16T13:57:01;97540.78;;;13.75;41.96
57594;BME280;43423;46.510;6.686;2023-02-16T14:01:55;97527.91;;;13.87;42.73
57594;BME280;43423;46.510;6.686;2023-02-16T14:06:49;97534.38;;;13.69;43.05
57594;BME280;43423;46.510;6.686;2023-02-16T14:22:56;97518.13;;;14.15;40.78
57594;BME280;43423;46.510;6.686;2023-02-16T14:28:49;97527.28;;;14.07;39.95
57594;BME280;43423;46.510;6.686;2023-02-16T14:30:55;97526.13;;;14.13;39.94
57594;BME280;43423;46.510;6.686;2023-02-16T14:33:38;97518.50;;;14.38;39.31
57594;BME280;43423;46.510;6.686;2023-02-16T14:36:14;97525.38;;;14.28;39.40
57594;BME280;43423;46.510;6.686;2023-02-16T14:41:27;97528.50;;;13.91;40.16
57594;BME280;43423;46.510;6.686;2023-02-16T14:46:50;97518.00;;;13.41;40.54
57594;BME280;43423;46.510;6.686;2023-02-16T14:52:25;97518.38;;;13.01;40.09
57594;BME280;43423;46.510;6.686;2023-02-16T14:55:13;97508.06;;;12.78;41.60
57594;BME280;43423;46.510;6.686;2023-02-16T14:57:54;97503.41;;;12.60;44.42
57594;BME280;43423;46.510;6.686;2023-02-16T15:00:33;97506.00;;;12.12;46.70
57594;BME280;43423;46.510;6.686;2023-02-16T15:03:20;97511.69;;;11.99;48.02
57594;BME280;43423;46.510;6.686;2023-02-16T15:06:01;97507.84;;;12.06;45.95
57594;BME280;43423;46.510;6.686;2023-02-16T15:08:35;97506.78;;;12.13;48.42
57594;BME280;43423;46.510;6.686;2023-02-16T15:11:14;97510.03;;;12.02;47.45
57594;BME280;43423;46.510;6.686;2023-02-16T15:13:40;97503.59;;;11.78;47.75
57594;BME280;43423;46.510;6.686;2023-02-16T15:16:09;97498.72;;;11.54;48.12
57594;BME280;43423;46.510;6.686;2023-02-16T15:18:43;97495.97;;;11.63;48.93
57594;BME280;43423;46.510;6.686;2023-02-16T15:21:21;97491.81;;;11.68;48.23
57594;BME280;43423;46.510;6.686;2023-02-16T15:23:51;97492.13;;;11.70;48.32
57594;BME280;43423;46.510;6.686;2023-02-16T15:26:26;97490.28;;;11.58;48.67
57594;BME280;43423;46.510;6.686;2023-02-16T15:28:57;97492.72;;;11.65;48.76
57594;BME280;43423;46.510;6.686;2023-02-16T15:31:35;97488.91;;;11.71;48.81
57594;BME280;43423;46.510;6.686;2023-02-16T15:34:12;97491.19;;;11.73;48.82
57594;BME280;43423;46.510;6.686;2023-02-16T15:36:41;97496.41;;;11.71;49.17
57594;BME280;43423;46.510;6.686;2023-02-16T15:39:13;97494.25;;;11.66;49.17
57594;BME280;43423;46.510;6.686;2023-02-16T15:41:42;97484.63;;;11.61;49.79
57594;BME280;43423;46.510;6.686;2023-02-16T15:47:19;97484.31;;;11.50;51.83
57594;BME280;43423;46.510;6.686;2023-02-16T15:49:45;97487.25;;;11.46;52.16